Time;durP1;ratioP1;P1;durP2;ratioP2;P2;SDS_P1;SDS_P2;PMS_P1;PMS_P2;Temp;Humidity;BMP_temperature;BMP_pressure;BME280_temperature;BME280_humidity;BME280_pressure;Samples;Min_cycle;Max_cycle;Signal;HPM_P1;HPM_P2
2022/10/16 00:01:18;;;;;;;9.70;4.38;;;14.10;99.90;;;;;;5073770;28;20092;-74
2022/10/16 00:03:44;;;;;;;8.30;4.55;;;14.10;99.90;;;;;;5073565;28;20032;-75
2022/10/16 00:06:12;;;;;;;8.23;4.70;;;14.10;99.90;;;;;;5055513;28;20039;-74
2022/10/16 00:08:39;;;;;;;9.77;5.63;;;14.10;99.90;;;;;;5073445;28;20024;-74
2022/10/16 00:11:06;;;;;;;11.73;5.82;;;14.00;99.90;;;;;;5061830;22;20035;-86
2022/10/16 00:13:34;;;;;;;11.73;5.10;;;14.10;99.90;;;;;;5073064;28;20032;-87
2022/10/16 00:16:01;;;;;;;11.10;4.65;;;14.10;99.90;;;;;;5072139;28;20485;-87
2022/10/16 00:18:28;;;;;;;7.45;4.50;;;14.10;99.90;;;;;;5055474;28;20503;-87
2022/10/16 00:20:55;;;;;;;8.52;4.57;;;14.00;99.90;;;;;;5073065;28;20476;-86
2022/10/16 00:23:22;;;;;;;8.40;4.40;;;14.00;99.90;;;;;;5055259;28;20393;-87
2022/10/16 00:25:58;;;;;;;7.78;4.15;;;14.00;99.90;;;;;;5054876;28;20044;-87
2022/10/16 00:28:24;;;;;;;8.30;4.10;;;14.00;99.90;;;;;;5072959;28;20051;-87
2022/10/16 00:30:50;;;;;;;8.60;4.13;;;14.00;99.90;;;;;;5054808;28;20086;-87
2022/10/16 00:33:16;;;;;;;9.70;4.53;;;14.00;99.90;;;;;;5072990;28;20431;-87
2022/10/16 00:35:42;;;;;;;8.52;4.40;;;14.00;99.90;;;;;;5054812;28;20140;-87
2022/10/16 00:38:08;;;;;;;8.00;4.28;;;14.00;99.90;;;;;;5055070;28;20024;-87
2022/10/16 00:40:34;;;;;;;9.55;4.55;;;14.00;99.90;;;;;;5054597;28;20024;-87
2022/10/16 00:42:59;;;;;;;7.55;4.40;;;14.00;99.90;;;;;;5072647;28;20404;-87
2022/10/16 00:45:25;;;;;;;11.45;4.70;;;14.00;99.90;;;;;;5072785;28;20033;-87
2022/10/16 00:47:53;;;;;;;7.40;4.65;;;13.90;99.90;;;;;;5054736;28;20509;-87
2022/10/16 00:50:30;;;;;;;9.43;4.80;;;14.00;99.90;;;;;;5054469;28;20031;-87
2022/10/16 00:52:58;;;;;;;8.52;4.68;;;13.90;99.90;;;;;;5054656;28;20032;-87
2022/10/16 00:55:25;;;;;;;10.18;5.45;;;13.90;99.90;;;;;;5072728;28;20476;-87
2022/10/16 00:57:52;;;;;;;8.30;5.20;;;13.90;99.90;;;;;;5072535;28;20036;-87
2022/10/16 01:00:21;;;;;;;8.95;5.28;;;13.90;99.90;;;;;;5072273;28;20108;-87
2022/10/16 01:02:55;;;;;;;10.38;4.88;;;13.90;99.90;;;;;;5054523;28;20021;-87
2022/10/16 01:05:23;;;;;;;12.02;6.25;;;13.90;99.90;;;;;;5072148;28;20032;-86
2022/10/16 01:07:55;;;;;;;8.38;5.28;;;13.90;99.90;;;;;;5072390;28;20025;-87
2022/10/16 01:10:37;;;;;;;9.77;6.03;;;13.90;99.90;;;;;;5072240;28;20056;-87
2022/10/16 01:13:08;;;;;;;9.02;5.25;;;13.80;99.90;;;;;;5072146;28;20036;-87
2022/10/16 01:15:42;;;;;;;9.30;5.32;;;13.80;99.90;;;;;;5054397;28;20040;-87
2022/10/16 01:18:12;;;;;;;8.50;5.35;;;13.80;99.90;;;;;;5072138;28;20384;-87
2022/10/16 01:20:53;;;;;;;7.10;4.60;;;13.80;99.90;;;;;;5071817;28;20024;-87
2022/10/16 01:23:38;;;;;;;7.10;4.45;;;13.80;99.90;;;;;;5072118;28;20043;-88
2022/10/16 01:26:41;;;;;;;9.55;4.95;;;13.80;99.90;;;;;;5053508;28;20083;-87
2022/10/16 01:30:21;;;;;;;8.18;4.75;;;13.80;99.90;;;;;;5053830;28;20021;-87
2022/10/16 01:33:10;;;;;;;11.82;5.50;;;13.80;99.90;;;;;;4932978;29;20609;-87
2022/10/16 01:35:43;;;;;;;8.35;5.00;;;13.70;99.90;;;;;;4935363;29;20035;-87
2022/10/16 01:38:28;;;;;;;9.70;4.50;;;13.70;99.90;;;;;;5034815;28;20040;-87
2022/10/16 01:41:35;;;;;;;6.95;4.05;;;13.70;99.90;;;;;;5071278;28;20066;-87
2022/10/16 01:44:22;;;;;;;11.30;4.97;;;13.70;99.90;;;;;;5053102;28;20493;-87
2022/10/16 01:46:52;;;;;;;8.02;4.80;;;13.70;99.90;;;;;;5071239;28;20020;-87
2022/10/16 01:49:22;;;;;;;7.45;4.05;;;13.80;99.90;;;;;;5053779;28;20032;-87
2022/10/16 01:51:54;;;;;;;8.68;4.80;;;13.80;99.90;;;;;;5071613;28;20062;-87
2022/10/16 01:54:23;;;;;;;8.82;5.40;;;13.80;99.90;;;;;;5071520;28;20021;-87
2022/10/16 01:56:50;;;;;;;;;;;13.80;99.90;;;;;;5071661;28;20097;-87
2022/10/16 01:59:20;;;;;;;9.43;4.60;;;13.80;99.90;;;;;;5036804;28;20289;-87
2022/10/16 02:01:55;;;;;;;12.52;5.63;;;13.80;99.90;;;;;;5071182;28;20123;-87
2022/10/16 02:04:42;;;;;;;9.98;4.95;;;13.80;99.90;;;;;;5071391;28;20528;-87
2022/10/16 02:07:08;;;;;;;8.15;4.40;;;13.80;99.90;;;;;;5071162;28;20025;-87
2022/10/16 02:09:35;;;;;;;9.10;4.28;;;13.80;99.90;;;;;;5070964;28;20044;-87
2022/10/16 02:12:08;;;;;;;6.82;4.10;;;13.80;99.90;;;;;;5036503;28;20035;-87
2022/10/16 02:14:37;;;;;;;8.15;3.88;;;13.80;99.90;;;;;;5053290;28;20499;-87
2022/10/16 02:17:14;;;;;;;6.97;3.60;;;13.80;99.90;;;;;;5053438;28;20074;-87
2022/10/16 02:19:41;;;;;;;5.00;3.22;;;13.80;99.90;;;;;;5053023;28;20117;-87
2022/10/16 02:22:15;;;;;;;4.75;2.92;;;13.80;99.90;;;;;;5071193;28;20117;-87
2022/10/16 02:25:10;;;;;;;6.20;2.30;;;13.80;99.90;;;;;;5053212;28;20035;-87
2022/10/16 02:27:41;;;;;;;5.72;2.28;;;13.80;99.90;;;;;;5068062;28;20110;-87
2022/10/16 02:30:36;;;;;;;5.38;2.17;;;13.90;99.90;;;;;;5070792;28;20082;-86
2022/10/16 02:33:05;;;;;;;6.43;2.33;;;13.90;99.90;;;;;;5044979;28;20432;-88
2022/10/16 02:35:31;;;;;;;;;;;13.90;99.90;;;;;;5071710;28;20032;-86
2022/10/16 02:37:58;;;;;;;4.63;1.98;;;13.90;99.90;;;;;;5071117;28;20300;-87
2022/10/16 02:40:25;;;;;;;6.20;2.15;;;14.00;99.90;;;;;;5074989;28;20036;-86
2022/10/16 02:42:52;;;;;;;5.13;2.25;;;14.00;99.90;;;;;;5075046;28;20028;-87
2022/10/16 02:45:19;;;;;;;5.85;2.17;;;14.00;99.90;;;;;;5075069;28;20024;-87
2022/10/16 02:47:45;;;;;;;4.55;1.90;;;14.00;99.90;;;;;;5056638;28;20037;-87
2022/10/16 02:50:11;;;;;;;4.93;2.00;;;14.00;99.90;;;;;;5075371;28;20032;-87
2022/10/16 02:52:37;;;;;;;3.22;1.70;;;14.00;99.90;;;;;;5057024;28;20370;-87
2022/10/16 02:55:03;;;;;;;4.70;1.90;;;14.00;99.90;;;;;;5057160;28;20077;-87
2022/10/16 02:57:29;;;;;;;3.75;1.70;;;14.00;99.90;;;;;;5074823;28;20070;-86
2022/10/16 02:59:55;;;;;;;4.20;1.90;;;14.00;99.90;;;;;;5074609;28;20095;-87
2022/10/16 03:02:21;;;;;;;7.63;2.42;;;14.00;99.90;;;;;;5074735;28;20028;-87
2022/10/16 03:04:47;;;;;;;3.63;1.67;;;14.00;99.90;;;;;;5040129;28;20068;-87
2022/10/16 03:07:13;;;;;;;4.13;1.63;;;14.00;99.90;;;;;;5056872;28;20106;-86
2022/10/16 03:09:38;;;;;;;5.22;2.10;;;14.10;99.90;;;;;;5039965;28;20035;-87
2022/10/16 03:12:04;;;;;;;5.47;1.80;;;14.10;99.90;;;;;;5056794;28;20043;-86
2022/10/16 03:14:30;;;;;;;5.28;1.70;;;14.00;99.90;;;;;;5056631;28;20048;-87
2022/10/16 03:16:56;;;;;;;4.35;1.90;;;14.10;99.90;;;;;;5074336;28;20021;-87
2022/10/16 03:19:22;;;;;;;2.40;1.50;;;14.10;99.90;;;;;;5074460;28;20151;-87
2022/10/16 03:21:48;;;;;;;4.47;1.95;;;14.10;99.90;;;;;;5056602;28;20024;-87
2022/10/16 03:24:13;;;;;;;3.72;1.65;;;14.10;99.90;;;;;;5056702;28;20033;-86
2022/10/16 03:26:39;;;;;;;4.28;1.67;;;14.10;99.90;;;;;;5056384;28;20060;-87
2022/10/16 03:29:06;;;;;;;3.40;1.60;;;14.10;99.90;;;;;;5074152;28;20028;-87
2022/10/16 03:31:32;;;;;;;7.32;1.60;;;14.00;99.90;;;;;;5074303;28;20032;-87
2022/10/16 03:33:57;;;;;;;4.88;1.60;;;14.10;99.90;;;;;;5056418;28;20039;-87
2022/10/16 03:36:23;;;;;;;2.75;1.30;;;14.10;99.90;;;;;;5074197;28;20032;-87
2022/10/16 03:38:49;;;;;;;2.83;1.40;;;14.10;99.90;;;;;;5074182;28;20024;-87
2022/10/16 03:41:15;;;;;;;4.85;1.63;;;14.00;99.90;;;;;;5074310;28;20401;-86
2022/10/16 03:43:41;;;;;;;2.75;1.33;;;14.10;99.90;;;;;;5039788;28;20052;-87
2022/10/16 03:46:07;;;;;;;5.38;1.60;;;14.00;99.90;;;;;;5056200;28;20063;-87
2022/10/16 03:48:33;;;;;;;2.47;1.30;;;14.00;99.90;;;;;;5039690;28;20032;-87
2022/10/16 03:50:59;;;;;;;3.05;1.30;;;14.10;99.90;;;;;;5056090;28;20275;-87
2022/10/16 03:53:25;;;;;;;2.60;1.40;;;14.10;99.90;;;;;;5056313;28;20055;-86
2022/10/16 03:55:51;;;;;;;3.03;1.30;;;14.00;99.90;;;;;;5056258;28;20024;-87
2022/10/16 03:58:17;;;;;;;3.67;1.63;;;14.10;99.90;;;;;;5074446;28;20095;-86
2022/10/16 04:00:44;;;;;;;3.60;1.38;;;14.00;99.90;;;;;;5073833;28;20032;-87
2022/10/16 04:03:11;;;;;;;4.63;1.35;;;14.00;99.90;;;;;;5074150;28;20035;-87
2022/10/16 04:05:37;;;;;;;3.72;1.30;;;14.00;99.90;;;;;;5073928;28;20030;-87
2022/10/16 04:08:03;;;;;;;3.20;1.30;;;14.00;99.90;;;;;;5073443;28;20044;-86
2022/10/16 04:10:29;;;;;;;3.95;1.50;;;14.00;99.90;;;;;;5055172;28;20024;-87
2022/10/16 04:12:55;;;;;;;4.43;1.35;;;14.00;99.90;;;;;;5073006;28;20033;-86
2022/10/16 04:15:25;;;;;;;2.95;1.25;;;14.00;99.90;;;;;;5055244;28;20044;-87
2022/10/16 04:17:52;;;;;;;2.83;1.10;;;14.00;99.90;;;;;;5073369;28;20520;-87
2022/10/16 04:20:18;;;;;;;2.90;1.35;;;14.00;99.90;;;;;;5073145;28;20024;-87
2022/10/16 04:22:44;;;;;;;3.67;1.42;;;14.00;99.90;;;;;;5055025;28;20082;-86
2022/10/16 04:25:11;;;;;;;3.03;1.10;;;14.00;99.90;;;;;;5073237;28;20024;-87
2022/10/16 04:27:38;;;;;;;4.53;1.30;;;14.00;99.90;;;;;;5038171;28;20028;-87
2022/10/16 04:30:04;;;;;;;4.70;1.50;;;14.00;99.90;;;;;;5054863;28;20043;-87
2022/10/16 04:32:30;;;;;;;2.25;1.20;;;14.00;99.90;;;;;;5055005;28;20070;-87
2022/10/16 04:34:56;;;;;;;2.40;1.38;;;14.00;99.90;;;;;;5055011;28;20427;-87
2022/10/16 04:37:26;;;;;;;4.70;1.13;;;14.00;99.90;;;;;;5072679;28;20021;-87
2022/10/16 04:39:53;;;;;;;3.72;1.38;;;14.00;99.90;;;;;;5072658;28;20020;-87
2022/10/16 04:42:20;;;;;;;2.53;1.30;;;13.90;99.90;;;;;;5072811;28;20029;-87
2022/10/16 04:44:47;;;;;;;4.60;1.55;;;13.90;99.90;;;;;;5072678;28;20025;-87
2022/10/16 04:47:13;;;;;;;5.22;2.10;;;14.00;99.90;;;;;;5072664;28;20132;-87
2022/10/16 04:49:40;;;;;;;3.13;1.42;;;13.90;99.90;;;;;;5054630;28;20032;-87
2022/10/16 04:52:05;;;;;;;2.83;1.30;;;13.90;99.90;;;;;;5072409;28;20469;-87
2022/10/16 04:54:34;;;;;;;6.03;1.40;;;13.90;99.90;;;;;;5072451;28;20030;-87
2022/10/16 04:57:00;;;;;;;3.40;1.50;;;13.90;99.90;;;;;;5072234;28;20048;-87
2022/10/16 04:59:26;;;;;;;2.75;1.25;;;13.80;99.90;;;;;;5072432;28;20439;-87
2022/10/16 05:01:52;;;;;;;3.80;1.70;;;13.80;99.90;;;;;;5071675;28;20439;-87
2022/10/16 05:04:18;;;;;;;3.95;1.30;;;13.90;99.90;;;;;;5072507;28;20029;-87
2022/10/16 05:06:44;;;;;;;1.73;1.10;;;13.80;99.90;;;;;;5054071;28;20472;-86
2022/10/16 05:09:10;;;;;;;2.83;1.60;;;13.80;99.90;;;;;;5054093;28;20032;-87
2022/10/16 05:11:36;;;;;;;3.38;1.33;;;13.80;99.90;;;;;;5072287;28;20112;-87
2022/10/16 05:14:02;;;;;;;3.75;1.58;;;13.80;99.90;;;;;;5072072;28;20112;-87
2022/10/16 05:16:30;;;;;;;3.35;1.67;;;13.90;99.90;;;;;;5054199;28;20021;-87
2022/10/16 05:18:56;;;;;;;2.72;1.33;;;13.80;99.90;;;;;;5053955;28;20538;-87
2022/10/16 05:21:24;;;;;;;3.30;1.60;;;13.80;99.90;;;;;;5053957;28;20035;-87
2022/10/16 05:23:50;;;;;;;2.72;1.35;;;13.80;99.90;;;;;;5054021;28;20032;-87
2022/10/16 05:26:18;;;;;;;3.13;1.58;;;13.80;99.90;;;;;;5071632;28;20025;-87
2022/10/16 05:28:44;;;;;;;3.30;1.23;;;13.80;99.90;;;;;;5071630;28;20029;-87
2022/10/16 05:31:10;;;;;;;3.35;1.50;;;13.80;99.90;;;;;;5071617;28;20192;-86
2022/10/16 05:33:36;;;;;;;2.75;1.45;;;13.80;99.90;;;;;;5053604;28;20036;-87
2022/10/16 05:36:07;;;;;;;3.70;1.30;;;13.80;99.90;;;;;;5053456;28;20400;-87
2022/10/16 05:38:34;;;;;;;3.47;1.55;;;13.80;99.90;;;;;;5053509;28;20032;-87
2022/10/16 05:41:00;;;;;;;3.97;1.42;;;13.80;99.90;;;;;;5053564;28;20152;-87
2022/10/16 05:43:28;;;;;;;1.67;1.25;;;13.80;99.90;;;;;;5053473;28;20154;-86
2022/10/16 05:45:58;;;;;;;3.13;1.27;;;13.80;99.90;;;;;;5036974;28;20127;-86
2022/10/16 05:48:24;;;;;;;4.03;1.25;;;13.80;99.90;;;;;;5053548;28;20029;-87
2022/10/16 05:51:16;;;;;;;3.33;1.20;;;13.80;99.90;;;;;;5053159;28;20036;-86
2022/10/16 05:53:43;;;;;;;3.28;1.25;;;13.80;99.90;;;;;;5067533;28;20524;-87
2022/10/16 05:56:11;;;;;;;4.05;1.45;;;13.80;99.90;;;;;;5053333;28;20637;-86
2022/10/16 05:58:40;;;;;;;3.17;1.40;;;13.80;99.90;;;;;;5053103;28;20038;-87
2022/10/16 06:01:17;;;;;;;3.28;1.30;;;13.80;99.90;;;;;;5053145;28;20047;-87
2022/10/16 06:03:43;;;;;;;4.47;1.42;;;13.80;99.90;;;;;;5053332;28;20400;-87
2022/10/16 06:06:17;;;;;;;3.15;1.67;;;13.80;99.90;;;;;;5053314;28;20028;-87
2022/10/16 06:08:45;;;;;;;3.85;1.42;;;13.80;99.90;;;;;;5052942;28;20350;-87
2022/10/16 06:13:45;;;;;;;2.67;1.40;;;13.80;99.90;;;;;;5045937;28;20090;-84
2022/10/16 06:16:13;;;;;;;3.80;1.40;;;13.80;99.90;;;;;;5050593;28;20485;-84
2022/10/16 06:18:39;;;;;;;4.65;1.42;;;13.80;99.90;;;;;;5032903;28;20029;-84
2022/10/16 06:21:10;;;;;;;5.00;1.58;;;13.80;99.90;;;;;;5049543;28;20033;-84
2022/10/16 06:23:36;;;;;;;3.78;1.25;;;13.80;99.90;;;;;;5030770;28;20030;-84
2022/10/16 06:26:10;;;;;;;2.85;1.40;;;13.80;99.90;;;;;;5013025;28;20087;-83
2022/10/16 06:28:36;;;;;;;2.33;1.33;;;13.80;99.90;;;;;;5013019;28;20083;-84
2022/10/16 06:31:04;;;;;;;4.15;1.60;;;13.80;99.90;;;;;;5013167;28;20025;-83
2022/10/16 06:33:30;;;;;;;6.13;1.50;;;13.80;99.90;;;;;;5012957;28;20030;-84
2022/10/16 06:36:08;;;;;;;5.13;2.10;;;13.80;99.90;;;;;;5030383;28;20104;-84
2022/10/16 06:38:34;;;;;;;5.72;2.03;;;13.80;99.90;;;;;;5030532;28;20030;-84
2022/10/16 06:41:00;;;;;;;6.30;2.33;;;13.80;99.90;;;;;;5029277;28;20030;-83
2022/10/16 06:43:29;;;;;;;5.72;2.30;;;13.80;99.90;;;;;;5012956;28;20029;-84
2022/10/16 06:45:56;;;;;;;3.88;1.95;;;13.90;99.90;;;;;;5030448;28;20029;-84
2022/10/16 06:48:23;;;;;;;4.63;2.17;;;13.80;99.90;;;;;;5030511;28;20041;-84
2022/10/16 06:51:01;;;;;;;4.07;1.77;;;13.90;99.90;;;;;;5012897;28;20045;-84
2022/10/16 06:53:30;;;;;;;5.30;2.03;;;13.90;99.90;;;;;;5030434;28;20108;-83
2022/10/16 06:55:56;;;;;;;3.92;1.90;;;13.90;99.90;;;;;;5030277;28;20037;-84
2022/10/16 06:58:23;;;;;;;4.88;1.98;;;13.90;99.90;;;;;;5030589;28;20026;-84
2022/10/16 07:00:54;;;;;;;5.38;2.58;;;13.90;99.90;;;;;;5030612;28;20029;-84
2022/10/16 07:03:20;;;;;;;3.65;2.13;;;13.90;99.90;;;;;;5030452;28;20397;-84
2022/10/16 07:05:46;;;;;;;3.53;1.75;;;13.90;99.90;;;;;;4996263;28;20028;-83
2022/10/16 07:08:11;;;;;;;3.75;1.70;;;13.90;99.90;;;;;;5012831;28;20064;-84
2022/10/16 07:10:38;;;;;;;4.50;1.65;;;13.90;99.90;;;;;;5030463;28;20033;-84
2022/10/16 07:13:03;;;;;;;4.13;1.90;;;13.90;99.90;;;;;;5030414;28;20037;-84
2022/10/16 07:15:29;;;;;;;6.35;2.00;;;13.90;99.90;;;;;;5012702;28;20125;-84
2022/10/16 07:17:55;;;;;;;3.75;1.80;;;13.90;99.90;;;;;;5030299;28;20033;-84
2022/10/16 07:20:21;;;;;;;3.03;1.90;;;13.90;99.90;;;;;;5030252;28;20555;-84
2022/10/16 07:22:47;;;;;;;2.70;1.45;;;13.90;99.90;;;;;;5029116;28;20025;-84
2022/10/16 07:25:12;;;;;;;3.08;1.67;;;13.90;99.90;;;;;;5032309;28;20038;-84
2022/10/16 07:27:38;;;;;;;6.47;1.55;;;13.90;99.90;;;;;;5033815;28;20064;-83
2022/10/16 07:30:05;;;;;;;2.65;1.60;;;13.90;99.90;;;;;;5033916;28;20033;-83
2022/10/16 07:32:31;;;;;;;4.10;1.52;;;14.00;99.90;;;;;;5033908;28;20466;-84
2022/10/16 07:34:58;;;;;;;3.25;2.00;;;14.00;99.90;;;;;;5034254;28;20136;-83
2022/10/16 07:37:23;;;;;;;6.00;1.90;;;14.00;99.90;;;;;;5033746;28;20105;-84
2022/10/16 07:39:49;;;;;;;4.15;1.77;;;14.00;99.90;;;;;;5033588;28;20536;-83
2022/10/16 07:42:15;;;;;;;3.28;1.80;;;14.00;99.90;;;;;;5032490;28;20033;-84
2022/10/16 07:44:41;;;;;;;2.55;1.70;;;14.00;99.90;;;;;;5032569;28;20039;-83
2022/10/16 07:47:07;;;;;;;2.78;1.70;;;14.10;99.90;;;;;;5015841;28;20458;-83
2022/10/16 07:49:33;;;;;;;2.70;1.67;;;14.10;99.90;;;;;;5033240;28;20080;-83
2022/10/16 07:51:58;;;;;;;3.45;1.90;;;14.10;99.90;;;;;;5032361;28;20495;-84
2022/10/16 07:54:27;;;;;;;4.18;1.77;;;14.10;99.90;;;;;;5015792;28;20029;-83
2022/10/16 07:56:52;;;;;;;3.70;1.83;;;14.20;99.90;;;;;;5033452;28;20021;-84
2022/10/16 07:59:18;;;;;;;5.88;1.90;;;14.20;99.90;;;;;;5033401;28;20420;-83
2022/10/16 08:01:44;;;;;;;5.25;1.50;;;14.20;99.90;;;;;;5015663;28;20469;-83
2022/10/16 08:04:10;;;;;;;6.25;1.50;;;14.30;99.90;;;;;;5033351;28;20394;-83
2022/10/16 08:06:39;;;;;;;6.85;3.40;;;14.30;99.90;;;;;;5033101;28;20026;-83
2022/10/16 08:09:07;;;;;;;7.60;3.08;;;14.30;99.90;;;;;;5033419;28;20032;-83
2022/10/16 08:11:33;;;;;;;7.85;3.42;;;14.40;99.90;;;;;;5033064;28;20478;-83
2022/10/16 08:13:59;;;;;;;5.30;2.60;;;14.40;99.90;;;;;;5033334;28;20028;-83
2022/10/16 08:16:24;;;;;;;7.63;2.20;;;14.40;99.90;;;;;;5032992;28;20029;-83
2022/10/16 08:18:51;;;;;;;4.25;1.70;;;14.40;99.90;;;;;;5032670;28;20029;-83
2022/10/16 08:21:19;;;;;;;5.55;1.85;;;14.50;99.90;;;;;;5032890;28;20029;-83
2022/10/16 08:23:45;;;;;;;4.28;1.77;;;14.50;99.90;;;;;;5033224;28;20041;-83
2022/10/16 08:26:12;;;;;;;6.22;2.20;;;14.60;99.90;;;;;;5033014;28;20038;-84
2022/10/16 08:28:38;;;;;;;3.97;2.30;;;14.60;99.90;;;;;;5015194;28;20037;-83
2022/10/16 08:31:12;;;;;;;4.32;1.70;;;14.70;99.90;;;;;;5032786;28;20029;-83
2022/10/16 08:33:40;;;;;;;5.25;2.38;;;14.60;99.90;;;;;;5032935;28;20493;-83
2022/10/16 08:36:06;;;;;;;8.13;2.75;;;14.70;99.90;;;;;;5014070;28;20029;-84
2022/10/16 08:38:33;;;;;;;4.80;2.20;;;14.70;99.90;;;;;;5032717;28;20045;-84
2022/10/16 08:41:12;;;;;;;5.82;2.50;;;14.80;99.90;;;;;;5032652;28;20021;-83
2022/10/16 08:44:00;;;;;;;7.82;2.13;;;14.80;99.90;;;;;;5032599;28;20029;-83
2022/10/16 08:47:10;;;;;;;6.63;2.30;;;14.80;99.90;;;;;;5032551;28;20108;-83
2022/10/16 08:49:37;;;;;;;7.32;2.47;;;14.80;99.90;;;;;;5014666;28;20041;-84
2022/10/16 08:52:03;;;;;;;6.18;3.05;;;14.90;99.90;;;;;;5032400;28;20025;-84
2022/10/16 08:54:43;;;;;;;8.50;3.35;;;15.00;99.90;;;;;;5032422;28;20056;-84
2022/10/16 08:57:27;;;;;;;5.75;2.60;;;15.10;99.90;;;;;;5032122;28;20032;-83
2022/10/16 08:59:55;;;;;;;5.90;2.60;;;15.10;99.90;;;;;;5014573;28;20034;-84
2022/10/16 09:02:31;;;;;;;8.18;3.30;;;15.10;99.90;;;;;;5032070;28;20021;-83
2022/10/16 09:05:20;;;;;;;6.60;3.10;;;15.10;99.90;;;;;;5032389;28;20500;-84
2022/10/16 09:07:54;;;;;;;;;;;15.10;99.90;;;;;;5014819;28;20031;-84
2022/10/16 09:10:27;;;;;;;9.05;3.10;;;15.20;99.90;;;;;;5032030;28;19909;-83
2022/10/16 09:13:12;;;;;;;6.13;2.00;;;15.20;99.90;;;;;;5014336;28;20482;-83
2022/10/16 09:15:53;;;;;;;3.83;2.05;;;15.30;99.90;;;;;;5014228;28;20061;-83
2022/10/16 09:18:45;;;;;;;5.80;2.80;;;15.30;99.90;;;;;;5031991;28;20036;-83
2022/10/16 09:21:28;;;;;;;5.85;2.50;;;15.30;99.90;;;;;;5031692;28;20037;-83
2022/10/16 09:23:59;;;;;;;5.50;1.92;;;15.30;99.90;;;;;;5032273;28;20026;-83
2022/10/16 09:26:25;;;;;;;3.88;1.40;;;15.40;99.90;;;;;;5014282;28;20123;-83
2022/10/16 09:28:52;;;;;;;7.22;2.35;;;15.30;99.90;;;;;;5031946;28;20029;-83
2022/10/16 09:31:20;;;;;;;6.03;2.33;;;15.30;99.90;;;;;;5031808;28;20029;-83
2022/10/16 09:33:53;;;;;;;6.57;1.80;;;15.40;99.90;;;;;;5031840;28;20038;-83
2022/10/16 09:36:21;;;;;;;6.90;1.83;;;15.40;99.90;;;;;;5031435;28;20371;-83
2022/10/16 09:38:49;;;;;;;4.25;1.50;;;15.40;99.90;;;;;;5031606;28;20036;-83
2022/10/16 09:41:20;;;;;;;5.57;1.80;;;15.40;99.90;;;;;;5031825;28;20033;-83
2022/10/16 09:43:59;;;;;;;4.63;1.50;;;15.40;99.90;;;;;;5030434;28;20445;-83
2022/10/16 09:46:33;;;;;;;6.30;3.58;;;15.50;99.90;;;;;;5031279;28;20033;-83
2022/10/16 09:49:01;;;;;;;4.68;1.70;;;15.50;99.90;;;;;;5031439;28;20046;-83
2022/10/16 09:51:30;;;;;;;3.80;1.33;;;15.50;99.90;;;;;;5031702;28;20111;-83
2022/10/16 09:53:58;;;;;;;;;;;15.50;99.90;;;;;;5032055;28;20040;-83
2022/10/16 09:56:32;;;;;;;6.43;1.95;;;15.50;99.90;;;;;;5031412;28;19913;-83
2022/10/16 09:59:01;;;;;;;5.90;1.50;;;15.60;99.90;;;;;;5032415;28;20018;-83
2022/10/16 10:01:38;;;;;;;4.32;1.30;;;15.60;99.90;;;;;;5034083;28;20021;-83
2022/10/16 10:04:05;;;;;;;2.95;1.17;;;15.70;99.90;;;;;;5034167;28;20029;-83
2022/10/16 10:06:46;;;;;;;3.55;1.25;;;15.70;99.90;;;;;;5031876;28;20036;-83
2022/10/16 10:09:23;;;;;;;3.70;1.10;;;15.70;99.90;;;;;;5031220;28;20061;-83
2022/10/16 10:12:00;;;;;;;5.22;1.30;;;15.80;99.90;;;;;;5029611;28;20030;-83
2022/10/16 10:14:46;;;;;;;4.10;1.10;;;15.80;99.90;;;;;;5030846;28;20107;-83
2022/10/16 10:17:16;;;;;;;3.60;1.33;;;15.90;99.90;;;;;;5030782;28;20029;-83
2022/10/16 10:19:51;;;;;;;4.03;1.85;;;16.00;99.90;;;;;;5030631;28;20105;-83
2022/10/16 10:22:45;;;;;;;4.13;1.20;;;16.10;99.90;;;;;;5030714;28;20037;-83
2022/10/16 10:25:11;;;;;;;8.73;2.33;;;16.10;99.90;;;;;;5030972;28;20033;-83
2022/10/16 10:27:43;;;;;;;5.63;1.30;;;16.20;99.90;;;;;;5030597;28;20034;-84
2022/10/16 10:30:23;;;;;;;3.75;1.50;;;16.30;99.90;;;;;;5030537;28;20029;-84
2022/10/16 10:32:52;;;;;;;5.65;1.95;;;16.30;99.90;;;;;;5013088;28;20401;-83
2022/10/16 10:35:42;;;;;;;8.93;4.45;;;16.20;99.90;;;;;;5030614;28;20042;-83
2022/10/16 10:38:24;;;;;;;5.00;1.80;;;16.20;99.90;;;;;;5030509;28;20029;-84
2022/10/16 10:41:03;;;;;;;2.35;0.80;;;16.30;99.90;;;;;;5030352;28;20531;-83
2022/10/16 10:43:40;;;;;;;4.63;2.10;;;16.30;99.90;;;;;;5013004;28;20056;-83
2022/10/16 10:46:16;;;;;;;3.55;1.45;;;16.30;99.90;;;;;;5030764;28;20041;-83
2022/10/16 10:49:16;;;;;;;3.13;1.30;;;16.40;99.90;;;;;;5030339;28;20115;-83
2022/10/16 10:52:18;;;;;;;3.72;1.20;;;16.40;99.90;;;;;;4983819;28;20436;-83
2022/10/16 10:55:20;;;;;;;5.60;2.13;;;16.50;99.90;;;;;;4992391;28;20060;-83
2022/10/16 10:58:16;;;;;;;4.38;1.92;;;16.50;99.90;;;;;;5030521;28;20029;-83
2022/10/16 11:00:57;;;;;;;5.82;2.15;;;16.40;99.90;;;;;;5033175;28;20099;-83
2022/10/16 11:03:49;;;;;;;4.07;1.88;;;16.50;99.90;;;;;;5016634;28;20467;-83
2022/10/16 11:06:50;;;;;;;7.25;3.20;;;16.50;99.90;;;;;;5034065;28;20366;-83
2022/10/16 11:09:31;;;;;;;5.95;1.90;;;16.50;99.90;;;;;;5016469;28;20081;-84
2022/10/16 11:12:12;;;;;;;5.10;2.08;;;16.40;99.90;;;;;;5016455;28;20171;-84
2022/10/16 11:14:50;;;;;;;3.92;1.50;;;16.30;99.90;;;;;;5033932;28;20532;-84
2022/10/16 11:17:29;;;;;;;4.85;1.80;;;16.30;99.90;;;;;;5033744;28;20029;-84
2022/10/16 11:20:05;;;;;;;6.35;1.70;;;16.30;99.90;;;;;;5033684;28;20104;-83
2022/10/16 11:22:41;;;;;;;3.35;1.40;;;16.40;99.90;;;;;;5016121;28;20119;-84
2022/10/16 11:25:23;;;;;;;4.15;1.48;;;16.30;99.90;;;;;;5033907;28;20490;-83
2022/10/16 11:28:03;;;;;;;4.18;1.80;;;16.30;99.90;;;;;;5033714;28;20030;-83
2022/10/16 11:30:33;;;;;;;4.63;1.30;;;16.40;99.90;;;;;;5033419;28;20037;-84
2022/10/16 11:33:23;;;;;;;5.72;1.23;;;16.40;99.90;;;;;;5033792;28;20436;-83
2022/10/16 11:36:13;;;;;;;5.45;2.05;;;16.40;99.90;;;;;;5033624;28;20037;-84
2022/10/16 11:39:21;;;;;;;3.95;1.50;;;16.50;99.90;;;;;;5033416;28;20514;-84
2022/10/16 11:42:05;;;;;;;3.95;2.20;;;16.50;99.90;;;;;;4934202;29;20584;-84
2022/10/16 11:44:51;;;;;;;5.18;1.38;;;16.50;99.90;;;;;;4933620;29;20051;-84
2022/10/16 11:47:26;;;;;;;3.08;1.52;;;16.50;99.90;;;;;;4991718;28;20036;-84
2022/10/16 11:49:59;;;;;;;4.30;1.50;;;16.50;99.90;;;;;;5015722;28;20056;-84
2022/10/16 11:52:30;;;;;;;2.67;1.10;;;16.50;99.90;;;;;;5015641;28;20029;-84
2022/10/16 11:55:01;;;;;;;4.13;1.20;;;16.50;99.90;;;;;;5033432;28;20039;-84
2022/10/16 11:57:33;;;;;;;5.63;2.00;;;16.50;99.90;;;;;;5033602;28;20163;-84
2022/10/16 12:00:34;;;;;;;4.80;1.60;;;16.50;99.90;;;;;;5033128;28;20022;-84
2022/10/16 12:03:21;;;;;;;4.68;2.10;;;16.50;99.90;;;;;;5027534;28;20041;-84
2022/10/16 12:06:18;;;;;;;6.28;2.28;;;16.50;99.90;;;;;;5033009;28;20101;-83
2022/10/16 12:08:44;;;;;;;3.55;1.40;;;16.40;99.90;;;;;;5015592;28;20037;-84
2022/10/16 12:11:28;;;;;;;5.63;1.50;;;16.40;99.90;;;;;;5032883;28;20037;-84
2022/10/16 12:14:12;;;;;;;3.15;1.60;;;16.50;99.90;;;;;;5110308;22;20497;-81
2022/10/16 12:16:59;;;;;;;4.43;1.65;;;16.40;99.90;;;;;;5072992;28;20032;-80
2022/10/16 12:19:28;;;;;;;6.57;1.63;;;16.50;99.90;;;;;;5054827;28;20024;-80
2022/10/16 12:21:58;;;;;;;4.63;1.67;;;16.50;99.90;;;;;;5072706;28;20107;-81
2022/10/16 12:24:30;;;;;;;4.15;1.65;;;16.60;99.90;;;;;;5054968;28;20111;-81
2022/10/16 12:26:56;;;;;;;4.28;1.50;;;16.50;99.90;;;;;;5072527;28;20032;-81
2022/10/16 12:29:38;;;;;;;3.55;1.33;;;16.50;99.90;;;;;;5072533;28;20082;-81
2022/10/16 12:32:19;;;;;;;2.95;1.20;;;16.50;99.90;;;;;;5072534;28;20507;-81
2022/10/16 12:34:45;;;;;;;4.75;2.05;;;16.50;99.90;;;;;;5072420;28;20032;-81
2022/10/16 12:37:37;;;;;;;4.60;1.70;;;16.60;99.90;;;;;;5072398;28;20583;-79
2022/10/16 12:40:26;;;;;;;6.28;2.60;;;16.60;99.90;;;;;;5072229;28;20032;-79
2022/10/16 12:42:52;;;;;;;;;;;16.60;99.90;;;;;;5072698;28;20082;-80
2022/10/16 12:45:26;;;;;;;6.72;1.83;;;16.60;99.90;;;;;;5072349;28;19908;-79
2022/10/16 12:47:54;;;;;;;3.67;1.15;;;16.60;99.90;;;;;;5053988;28;20122;-79
2022/10/16 12:50:33;;;;;;;3.72;1.90;;;16.60;99.90;;;;;;5054168;28;20028;-80
2022/10/16 12:53:01;;;;;;;4.78;1.60;;;16.60;99.90;;;;;;5072100;28;20276;-80
2022/10/16 12:55:27;;;;;;;3.58;1.30;;;16.70;99.90;;;;;;5072050;28;20032;-79
2022/10/16 12:58:09;;;;;;;5.68;1.30;;;16.70;99.90;;;;;;5071858;28;20043;-80
2022/10/16 13:00:45;;;;;;;5.57;1.40;;;16.70;99.90;;;;;;5071667;28;20039;-79
2022/10/16 13:03:29;;;;;;;2.80;1.27;;;16.70;99.90;;;;;;5071939;28;20020;-80
2022/10/16 13:06:17;;;;;;;2.72;1.02;;;16.70;99.90;;;;;;5071762;28;20098;-80
2022/10/16 13:09:13;;;;;;;3.28;1.25;;;16.80;99.90;;;;;;5071615;28;20477;-80
2022/10/16 13:12:04;;;;;;;3.75;1.50;;;16.70;99.90;;;;;;5044349;28;20057;-79
2022/10/16 13:14:52;;;;;;;6.45;2.30;;;16.70;99.90;;;;;;5071768;28;20040;-80
2022/10/16 13:17:44;;;;;;;4.90;2.20;;;16.70;99.90;;;;;;5071420;28;20493;-80